Time;durP1;ratioP1;P1;durP2;ratioP2;P2;SDS_P1;SDS_P2;PMS_P1;PMS_P2;Temp;Humidity;BMP_temperature;BMP_pressure;BME280_temperature;BME280_humidity;BME280_pressure;Samples;Min_cycle;Max_cycle;Signal;HPM_P1;HPM_P2
2023/07/17 00:01:05;;;;;;;6.40;3.75;;;;;;;;;;4868759;29;20058;-84
2023/07/17 00:03:31;;;;;;;8.25;4.07;;;;;;;;;;4852907;29;20018;-84
2023/07/17 00:05:57;;;;;;;6.65;3.50;;;;;;;;;;4860465;29;20081;-85
2023/07/17 00:08:24;;;;;;;7.57;3.47;;;;;;;;;;4865461;29;20026;-84
2023/07/17 00:10:50;;;;;;;5.60;3.20;;;;;;;;;;4868424;29;20081;-85
2023/07/17 00:13:16;;;;;;;10.43;3.42;;;;;;;;;;4859027;29;20029;-84
2023/07/17 00:15:42;;;;;;;7.78;3.72;;;;;;;;;;4857370;29;20033;-88
2023/07/17 00:18:08;;;;;;;7.18;3.50;;;;;;;;;;4856960;29;20057;-84
2023/07/17 00:20:34;;;;;;;11.38;3.88;;;;;;;;;;4844514;29;20042;-85
2023/07/17 00:23:00;;;;;;;10.85;3.83;;;;;;;;;;4856086;29;20097;-84
2023/07/17 00:25:26;;;;;;;7.00;3.50;;;;;;;;;;4845844;29;20038;-86
2023/07/17 00:27:52;;;;;;;6.55;3.50;;;;;;;;;;4850698;29;20056;-87
2023/07/17 00:30:19;;;;;;;8.20;3.28;;;;;;;;;;4836271;29;20037;-88
2023/07/17 00:32:45;;;;;;;6.28;3.42;;;;;;;;;;4850601;29;20026;-86
2023/07/17 00:35:12;;;;;;;5.68;3.42;;;;;;;;;;4855463;29;20037;-88
2023/07/17 00:37:38;;;;;;;9.80;3.60;;;;;;;;;;4849174;29;20034;-89
2023/07/17 00:40:06;;;;;;;7.97;3.38;;;;;;;;;;4849621;29;20081;-88
2023/07/17 00:42:33;;;;;;;8.50;3.50;;;;;;;;;;4854724;29;20036;-88
2023/07/17 00:45:00;;;;;;;9.73;3.42;;;;;;;;;;4847094;29;20030;-89
2023/07/17 00:47:27;;;;;;;8.38;3.83;;;;;;;;;;4870750;29;20603;-86
2023/07/17 00:49:56;;;;;;;8.82;3.10;;;;;;;;;;4848563;29;20054;-87
2023/07/17 00:52:22;;;;;;;7.78;4.00;;;;;;;;;;4850652;29;20026;-87
2023/07/17 00:54:49;;;;;;;6.07;3.13;;;;;;;;;;4850581;29;20030;-87
2023/07/17 00:57:17;;;;;;;7.22;4.00;;;;;;;;;;4849685;29;20033;-83
2023/07/17 00:59:43;;;;;;;8.15;3.40;;;;;;;;;;4840946;29;20029;-86
2023/07/17 01:02:09;;;;;;;8.40;3.60;;;;;;;;;;4849783;29;20114;-88
2023/07/17 01:04:37;;;;;;;7.13;3.60;;;;;;;;;;4862509;29;20121;-85
2023/07/17 01:07:07;;;;;;;9.65;3.95;;;;;;;;;;4847927;29;20033;-87
2023/07/17 01:09:33;;;;;;;7.43;4.07;;;;;;;;;;4849293;29;20038;-86
2023/07/17 01:11:59;;;;;;;8.45;3.55;;;;;;;;;;4862309;29;20030;-87
2023/07/17 01:14:25;;;;;;;10.57;4.00;;;;;;;;;;4843645;29;20038;-87
2023/07/17 01:16:52;;;;;;;12.82;3.55;;;;;;;;;;4849163;29;20035;-86
2023/07/17 01:19:20;;;;;;;9.63;4.22;;;;;;;;;;4846739;29;20058;-89
2023/07/17 01:21:51;;;;;;;6.25;3.55;;;;;;;;;;4854252;29;20034;-88
2023/07/17 01:24:17;;;;;;;10.50;3.55;;;;;;;;;;4853490;29;20030;-86
2023/07/17 01:26:43;;;;;;;7.82;3.55;;;;;;;;;;4853226;29;20029;-86
2023/07/17 01:29:09;;;;;;;6.85;3.85;;;;;;;;;;4844428;29;20048;-87
2023/07/17 01:31:37;;;;;;;7.40;3.45;;;;;;;;;;4854760;29;20032;-89
2023/07/17 01:34:04;;;;;;;7.65;3.72;;;;;;;;;;4845830;29;20082;-88
2023/07/17 01:36:30;;;;;;;7.95;3.55;;;;;;;;;;4852502;29;20037;-87
2023/07/17 01:38:56;;;;;;;6.70;3.30;;;;;;;;;;4850767;29;20516;-89
2023/07/17 01:41:23;;;;;;;9.68;3.80;;;;;;;;;;4833481;29;20039;-86
2023/07/17 01:43:49;;;;;;;6.90;3.78;;;;;;;;;;4852458;29;20030;-88
2023/07/17 01:46:15;;;;;;;8.60;3.95;;;;;;;;;;4851658;29;20121;-86
2023/07/17 01:48:41;;;;;;;9.88;3.95;;;;;;;;;;4851756;29;20039;-84
2023/07/17 01:51:07;;;;;;;9.30;3.47;;;;;;;;;;4841339;29;20117;-89
2023/07/17 01:53:34;;;;;;;8.98;3.70;;;;;;;;;;4841771;29;20030;-89
2023/07/17 01:56:00;;;;;;;8.38;3.97;;;;;;;;;;4848015;29;20441;-87
2023/07/17 01:58:26;;;;;;;9.35;3.97;;;;;;;;;;4851471;29;20061;-87
2023/07/17 02:00:55;;;;;;;6.53;3.35;;;;;;;;;;4854935;29;20030;-87
2023/07/17 02:16:19;;;;;;;7.95;2.85;;;;;;;;;;4918295;23;20046;-84
2023/07/17 02:18:54;;;;;;;10.95;3.83;;;;;;;;;;4844820;29;20031;-81
2023/07/17 02:21:40;;;;;;;7.97;3.83;;;;;;;;;;4842512;29;20017;-83
2023/07/17 02:24:06;;;;;;;7.40;3.58;;;;;;;;;;4848557;29;20019;-84
2023/07/17 02:45:19;;;;;;;9.43;3.92;;;17.80;99.90;;;;;;4950168;23;20061;-85
2023/07/17 02:48:17;;;;;;;8.15;3.55;;;;;;;;;;4879970;29;20030;-84
2023/07/17 02:56:37;;;;;;;7.30;3.85;;;;;;;;;;5077681;23;20067;-83
2023/07/17 03:01:58;;;;;;;10.18;4.30;;;;;;;;;;4858867;29;20036;-85
2023/07/17 03:04:40;;;;;;;8.15;3.50;;;;;;;;;;4866339;29;20022;-84
2023/07/17 03:09:47;;;;;;;5.45;3.53;;;;;;;;;;4963641;23;20043;-84
2023/07/17 03:12:15;;;;;;;9.77;3.42;;;17.40;99.90;;;;;;4842045;29;20050;-83
2023/07/17 03:14:44;;;;;;;12.32;3.55;;;;;;;;;;4836985;29;20087;-80
2023/07/17 03:17:10;;;;;;;7.80;3.70;;;;;;;;;;4846705;29;20047;-83
2023/07/17 03:19:59;;;;;;;9.35;3.55;;;;;;;;;;4855869;29;20179;-82
2023/07/17 03:22:57;;;;;;;9.10;3.88;;;;;;;;;;4837435;29;20046;-84
2023/07/17 03:28:27;;;;;;;6.97;4.05;;;;;;;;;;4839258;29;20033;-86
2023/07/17 03:31:16;;;;;;;7.43;4.28;;;;;;;;;;4847095;29;20055;-84
2023/07/17 03:34:08;;;;;;;12.00;4.87;;;;;;;;;;4844074;29;20015;-84
2023/07/17 03:37:23;;;;;;;8.45;4.32;;;17.20;99.90;;;;;;4846880;29;20031;-82
2023/07/17 03:39:49;;;;;;;10.68;4.72;;;;;;;;;;4847243;29;20038;-84
2023/07/17 03:42:39;;;;;;;8.88;4.63;;;;;;;;;;4847829;29;20010;-84
2023/07/17 03:45:47;;;;;;;7.22;4.57;;;;;;;;;;4844333;29;20072;-81
2023/07/17 03:48:26;;;;;;;9.73;4.13;;;;;;;;;;4830382;29;20099;-82
2023/07/17 03:51:36;;;;;;;9.52;4.75;;;;;;;;;;4848053;29;20029;-85
2023/07/17 03:54:03;;;;;;;10.48;5.32;;;;;;;;;;4850413;29;20046;-80
2023/07/17 03:56:32;;;;;;;8.60;4.18;;;;;;;;;;4846776;29;20022;-83
2023/07/17 03:59:04;;;;;;;10.45;4.45;;;;;;;;;;4844939;29;20039;-82
2023/07/17 04:01:33;;;;;;;9.82;4.35;;;;;;;;;;4842135;29;20034;-80
2023/07/17 04:04:19;;;;;;;7.10;3.97;;;;;;;;;;4852029;29;20043;-83
2023/07/17 04:06:51;;;;;;;9.00;4.03;;;16.70;99.90;;;;;;4852607;29;20086;-84
2023/07/17 04:09:26;;;;;;;10.25;3.97;;;;;;;;;;4868958;29;20030;-82
2023/07/17 04:11:58;;;;;;;9.23;4.40;;;;;;;;;;4852753;29;20022;-85
2023/07/17 04:15:06;;;;;;;9.43;4.80;;;;;;;;;;4843700;29;20050;-86
2023/07/17 04:17:29;;;;;;;12.02;4.60;;;;;;;;;;4843372;29;20168;-82
2023/07/17 04:19:55;;;;;;;9.52;4.88;;;;;;;;;;4851538;29;20075;-87
2023/07/17 04:22:21;;;;;;;8.55;4.90;;;;;;;;;;4846857;29;20011;-84
2023/07/17 04:30:01;;;;;;;10.23;4.88;;;;;;;;;;5045084;23;20086;-86
2023/07/17 04:37:44;;;;;;;7.65;4.28;;;;;;;;;;5201601;23;20086;-83
2023/07/17 04:40:13;;;;;;;10.20;4.03;;;;;;;;;;4848871;29;20027;-84
2023/07/17 04:42:48;;;;;;;7.15;3.80;;;;;;;;;;4846067;29;20094;-84
2023/07/17 04:45:25;;;;;;;8.43;3.35;;;;;;;;;;4818475;29;20060;-83
2023/07/17 04:48:04;;;;;;;9.82;4.10;;;;;;;;;;4839580;29;20014;-86
2023/07/17 04:53:20;;;;;;;8.23;3.60;;;;;;;;;;4832439;29;20049;-83
2023/07/17 04:55:58;;;;;;;9.13;4.15;;;;;;;;;;4821221;29;20082;-84
2023/07/17 04:58:28;;;;;;;9.25;3.78;;;;;;;;;;4852848;29;20030;-83
2023/07/17 05:39:40;;;;;;;8.90;4.07;;;;;;;;;;4843236;29;20087;-82
2023/07/17 05:42:06;;;;;;;7.03;3.80;;;;;;;;;;4851485;29;20374;-83
2023/07/17 05:44:32;;;;;;;9.60;3.92;;;;;;;;;;4826703;29;20063;-83
2023/07/17 05:46:58;;;;;;;7.60;3.70;;;;;;;;;;4842915;29;20030;-83
2023/07/17 05:49:25;;;;;;;10.13;4.22;;;;;;;;;;4832560;29;20027;-82
2023/07/17 05:51:51;;;;;;;8.45;3.25;;;;;;;;;;4828734;29;20027;-83
2023/07/17 05:54:17;;;;;;;7.90;3.50;;;;;;;;;;4829248;29;20027;-83
2023/07/17 05:56:44;;;;;;;8.52;3.95;;;;;;;;;;4840678;29;20038;-82
2023/07/17 05:59:10;;;;;;;8.38;3.85;;;;;;;;;;4831230;29;20038;-83
2023/07/17 06:01:36;;;;;;;8.52;3.58;;;;;;;;;;4844706;29;20030;-82
2023/07/17 06:04:05;;;;;;;7.93;3.58;;;;;;;;;;4848369;29;20167;-83
2023/07/17 06:06:34;;;;;;;8.77;3.70;;;;;;;;;;4839235;29;20034;-80
2023/07/17 06:09:06;;;;;;;10.75;3.78;;;;;;;;;;4833596;29;20052;-83
2023/07/17 06:11:32;;;;;;;8.85;3.97;;;;;;;;;;4812919;29;20035;-84
2023/07/17 06:13:58;;;;;;;8.82;4.13;;;;;;;;;;4832343;29;20167;-82
2023/07/17 06:16:24;;;;;;;9.25;3.75;;;;;;;;;;4847394;29;20035;-81
2023/07/17 06:18:50;;;;;;;8.52;3.90;;;;;;;;;;4843506;29;20088;-83
2023/07/17 06:21:17;;;;;;;7.80;3.88;;;;;;;;;;4840981;29;20027;-83
2023/07/17 06:23:44;;;;;;;8.27;3.88;;;;;;;;;;4839220;29;20041;-83
2023/07/17 06:26:10;;;;;;;8.38;4.03;;;;;;;;;;4838146;29;20053;-83
2023/07/17 06:28:37;;;;;;;6.50;4.00;;;;;;;;;;4832071;29;20097;-84
2023/07/17 06:31:03;;;;;;;13.65;4.10;;;;;;;;;;4839137;29;20098;-81
2023/07/17 06:33:29;;;;;;;12.20;4.65;;;;;;;;;;4852139;29;20097;-86
2023/07/17 06:36:00;;;;;;;11.30;4.32;;;;;;;;;;4852534;29;20022;-85
2023/07/17 06:38:26;;;;;;;15.35;4.80;;;;;;;;;;4840817;29;20031;-82
2023/07/17 06:40:53;;;;;;;12.43;4.28;;;;;;;;;;4846100;29;20022;-86
2023/07/17 06:43:19;;;;;;;7.47;4.05;;;;;;;;;;4845031;29;20056;-87
2023/07/17 06:45:46;;;;;;;7.45;4.20;;;;;;;;;;4844605;29;20010;-86
2023/07/17 06:48:15;;;;;;;9.70;4.28;;;;;;;;;;4843842;29;20034;-86
2023/07/17 06:50:44;;;;;;;9.80;4.20;;;;;;;;;;4841999;29;20077;-84
2023/07/17 06:53:25;;;;;;;11.55;4.28;;;;;;;;;;4844303;29;20023;-79
2023/07/17 06:55:59;;;;;;;9.02;3.95;;;20.00;99.90;;;;;;4840842;29;20031;-82
2023/07/17 06:58:25;;;;;;;9.52;4.10;;;;;;;;;;4830254;29;20058;-85
2023/07/17 07:00:57;;;;;;;13.88;4.47;;;;;;;;;;4838532;29;20027;-83
2023/07/17 07:03:33;;;;;;;17.13;5.18;;;;;;;;;;4837504;29;20114;-81
2023/07/17 07:06:09;;;;;;;11.27;4.68;;;;;;;;;;4840311;29;20035;-82
2023/07/17 07:08:35;;;;;;;6.68;4.30;;;;;;;;;;4846535;29;20035;-81
2023/07/17 07:11:02;;;;;;;10.98;4.32;;;;;;;;;;4838295;29;20035;-81
2023/07/17 07:13:29;;;;;;;14.40;4.68;;;;;;;;;;4846808;29;20089;-81
2023/07/17 07:15:55;;;;;;;8.07;3.80;;;;;;;;;;4832893;29;20042;-82
2023/07/17 07:18:22;;;;;;;9.25;4.20;;;;;;;;;;4833552;29;20090;-82
2023/07/17 07:20:51;;;;;;;11.52;4.18;;;;;;;;;;4850024;29;20499;-83
2023/07/17 07:23:17;;;;;;;12.07;4.40;;;;;;;;;;4856120;29;20133;-83
2023/07/17 07:25:44;;;;;;;9.77;3.70;;;;;;;;;;4843802;29;20027;-86
2023/07/17 07:28:11;;;;;;;14.18;4.82;;;;;;;;;;4838511;29;20054;-83
2023/07/17 07:30:37;;;;;;;7.63;4.38;;;;;;;;;;4842892;29;20056;-83
2023/07/17 07:33:04;;;;;;;10.70;4.00;;;;;;;;;;4847904;29;20106;-85
2023/07/17 07:35:30;;;;;;;27.90;4.28;;;;;;;;;;4857407;23;20133;-80
2023/07/17 07:37:59;;;;;;;9.80;4.18;;;;;;;;;;4823921;29;20034;-80
2023/07/17 07:43:39;;;;;;;11.80;4.35;;;21.20;99.90;;;;;;4843362;29;20058;-80
2023/07/17 07:46:35;;;;;;;9.07;4.50;;;;;;;;;;4846858;29;20199;-83
2023/07/17 07:49:13;;;;;;;9.00;3.92;;;21.30;99.90;;;;;;4860605;29;20037;-80
2023/07/17 07:52:09;;;;;;;8.80;3.88;;;;;;;;;;4860529;29;20259;-81
2023/07/17 07:55:08;;;;;;;11.65;6.55;;;21.30;99.90;;;;;;4864243;29;20134;-82
2023/07/17 07:57:51;;;;;;;9.10;4.38;;;21.50;99.90;;;;;;4857066;29;20054;-82
2023/07/17 08:00:47;;;;;;;10.80;4.47;;;;;;;;;;4849856;29;20034;-83
2023/07/17 08:06:02;;;;;;;11.23;4.18;;;;;;;;;;4863335;29;20052;-80
2023/07/17 08:08:42;;;;;;;11.27;3.88;;;;;;;;;;4848093;29;20499;-81
2023/07/17 08:11:22;;;;;;;11.00;4.28;;;;;;;;;;4859814;29;20054;-82
2023/07/17 08:14:00;;;;;;;8.98;3.63;;;;;;;;;;4810105;29;20094;-82
2023/07/17 08:17:02;;;;;;;6.78;3.17;;;22.20;99.90;;;;;;4852355;29;20034;-80
2023/07/17 08:19:42;;;;;;;8.27;3.55;;;22.30;99.40;;;;;;4842331;29;20049;-81
2023/07/17 08:22:34;;;;;;;8.48;3.10;;;;;;;;;;4845374;29;20049;-82
2023/07/17 08:28:51;;;;;;;7.70;3.03;;;22.40;99.30;;;;;;4829729;29;20094;-81
2023/07/17 08:35:17;;;;;;;11.98;3.70;;;22.80;98.80;;;;;;4840997;29;20095;-87
2023/07/17 08:37:55;;;;;;;8.43;3.75;;;;;;;;;;4832109;29;20038;-87
2023/07/17 08:53:33;;;;;;;6.45;3.35;;;;;;;;;;4800001;29;20043;-84
2023/07/17 09:02:41;;;;;;;5.32;2.50;;;;;;;;;;4738652;30;20101;-81
2023/07/17 09:09:55;;;;;;;8.05;2.97;;;23.60;95.10;;;;;;4724449;30;20437;-81
2023/07/17 18:38:10;;;;;;;3.72;1.30;;;;;;;;;;4848279;29;20049;-82
2023/07/17 18:44:20;;;;;;;4.65;1.25;;;24.70;67.80;;;;;;4838052;29;20122;-82
2023/07/17 18:47:05;;;;;;;2.35;1.15;;;;;;;;;;4834458;29;20045;-83
2023/07/17 18:53:08;;;;;;;5.05;1.63;;;;;;;;;;4848088;29;20033;-83
2023/07/17 18:56:09;;;;;;;;;;;;;;;;;;;;;
2023/07/17 18:59:20;;;;;;;4.63;1.38;;;24.30;68.90;;;;;;4861741;29;20117;-82
